Time;durP1;ratioP1;P1;durP2;ratioP2;P2;SDS_P1;SDS_P2;PMS_P1;PMS_P2;Temp;Humidity;BMP_temperature;BMP_pressure;BME280_temperature;BME280_humidity;BME280_pressure;Samples;Min_cycle;Max_cycle;Signal;HPM_P1;HPM_P2
2022/08/22 00:01:09;;;;;;;3.45;1.73;;;;;;;21.51;52.91;98069.53;5132066;27;20050;-92
2022/08/22 00:03:47;;;;;;;3.17;1.95;;;;;;;21.51;52.63;98061.41;5133184;27;20500;-92
2022/08/22 00:06:20;;;;;;;2.85;1.98;;;;;;;21.41;54.34;98057.75;5130636;27;20118;-93
2022/08/22 00:08:59;;;;;;;4.35;2.28;;;;;;;21.28;55.18;98054.31;5133089;27;20118;-90
2022/08/22 00:11:32;;;;;;;;;;;;;;;21.44;53.35;98065.59;5133237;27;20043;-91
2022/08/22 00:14:06;;;;;;;2.85;2.00;;;;;;;21.45;53.34;98061.06;5132222;27;20310;-92
2022/08/22 00:16:41;;;;;;;2.92;1.88;;;;;;;21.48;52.25;98047.28;5141440;27;20043;-94
2022/08/22 00:19:16;;;;;;;2.85;1.85;;;;;;;21.59;51.82;98039.13;5140452;27;20084;-92
2022/08/22 00:21:52;;;;;;;2.58;1.90;;;;;;;21.63;51.50;98043.28;5131384;27;20031;-92
2022/08/22 00:24:23;;;;;;;4.03;1.92;;;;;;;21.62;52.12;98062.34;5139814;27;20122;-93
2022/08/22 00:26:58;;;;;;;3.53;1.92;;;;;;;21.54;51.63;98041.34;5137251;27;20430;-91
2022/08/22 00:29:33;;;;;;;5.47;1.90;;;;;;;21.41;52.13;98027.13;5136988;27;20031;-91
2022/08/22 00:32:09;;;;;;;2.42;1.75;;;;;;;21.45;51.75;98043.00;5133948;27;20092;-93
2022/08/22 00:34:42;;;;;;;3.75;2.05;;;;;;;21.45;51.93;98047.53;5134711;27;20073;-91
2022/08/22 00:37:15;;;;;;;3.47;1.90;;;;;;;21.38;52.49;98038.16;5130910;27;20513;-92
2022/08/22 00:39:47;;;;;;;2.22;1.60;;;;;;;21.23;52.98;98034.88;5131043;27;20083;-92
2022/08/22 00:42:43;;;;;;;2.45;1.70;;;;;;;21.20;54.67;98052.22;5131437;27;20035;-92
2022/08/22 00:45:37;;;;;;;4.15;2.63;;;;;;;20.99;60.43;98051.28;5135034;27;20043;-91
2022/08/22 00:48:34;;;;;;;4.55;2.70;;;;;;;20.74;63.68;98045.16;5134506;27;20051;-91
2022/08/22 00:51:31;;;;;;;4.13;2.88;;;;;;;20.53;65.88;98051.25;5117333;27;20035;-93
2022/08/22 00:54:04;;;;;;;6.57;3.08;;;;;;;20.35;67.97;98051.84;5115384;27;20031;-91
2022/08/22 00:56:49;;;;;;;6.25;3.13;;;;;;;20.15;68.91;98056.13;5119670;27;20066;-92
2022/08/22 00:59:31;;;;;;;4.35;2.97;;;;;;;19.85;71.41;98047.56;5116297;27;20541;-91
2022/08/22 01:02:18;;;;;;;6.10;3.13;;;;;;;19.74;71.92;98046.66;5119197;27;20040;-91
2022/08/22 01:04:53;;;;;;;4.78;2.92;;;;;;;19.74;71.42;98050.22;5115874;27;20032;-92
2022/08/22 01:07:41;;;;;;;3.08;1.95;;;;;;;19.87;60.07;98039.34;5119741;27;20036;-93
2022/08/22 01:10:34;;;;;;;2.60;1.80;;;;;;;20.23;57.41;98051.84;5116483;27;20043;-92
2022/08/22 01:13:13;;;;;;;3.10;1.85;;;;;;;20.60;55.55;98035.47;5119799;27;20036;-93
2022/08/22 01:15:43;;;;;;;2.25;1.80;;;;;;;20.70;54.29;98044.53;5117418;27;20044;-92
2022/08/22 01:18:47;;;;;;;2.42;1.70;;;;;;;20.78;53.79;98043.06;5118233;27;20557;-93
2022/08/22 01:21:51;;;;;;;2.25;1.70;;;;;;;20.83;54.95;98040.84;5118984;27;20388;-91
2022/08/22 01:28:12;;;;;;;2.47;1.60;;;;;;;21.01;51.70;98020.41;5131700;27;20112;-92
2022/08/22 01:31:15;;;;;;;2.13;1.60;;;;;;;21.23;50.86;98040.28;5123336;28;20048;-90
2022/08/22 01:34:13;;;;;;;1.92;1.60;;;;;;;21.45;50.13;98034.03;5130731;28;20030;-94
2022/08/22 01:37:03;;;;;;;2.50;1.70;;;;;;;21.37;50.62;98022.94;5107882;27;20044;-92
2022/08/22 01:39:57;;;;;;;5.03;1.90;;;;;;;21.29;50.85;98031.69;5129411;28;20079;-91
2022/08/22 01:42:40;;;;;;;2.67;1.60;;;;;;;21.15;51.49;98040.94;5085455;28;20138;-90
2022/08/22 01:45:29;;;;;;;5.22;2.60;;;;;;;20.93;59.74;98047.25;5129684;28;20054;-93
2022/08/22 01:48:04;;;;;;;5.50;2.70;;;;;;;20.64;62.69;98039.63;5131749;27;20031;-89
2022/08/22 01:50:34;;;;;;;4.15;2.08;;;;;;;20.34;57.06;98025.81;5131717;27;20107;-92
2022/08/22 01:53:07;;;;;;;4.20;2.40;;;;;;;20.46;61.41;98035.66;5131347;28;20063;-93
2022/08/22 01:55:42;;;;;;;3.28;1.90;;;;;;;20.55;53.66;98020.56;5131488;27;20039;-91
2022/08/22 01:58:15;;;;;;;3.60;1.80;;;;;;;20.56;53.54;98012.34;5131365;27;20126;-91
2022/08/22 02:01:01;;;;;;;3.83;2.00;;;;;;;20.57;56.20;98018.59;5131392;27;20043;-91
2022/08/22 02:03:33;;;;;;;3.53;1.80;;;;;;;20.68;54.44;98041.09;5128866;28;20039;-90
2022/08/22 02:06:04;;;;;;;3.13;1.98;;;;;;;20.76;53.80;98031.53;5131146;27;20127;-91
2022/08/22 02:08:43;;;;;;;3.20;1.98;;;;;;;20.88;53.45;98039.50;5128389;27;20145;-91
2022/08/22 02:11:28;;;;;;;3.75;1.90;;;;;;;20.99;52.24;98046.75;5130924;28;20065;-92
2022/08/22 02:14:02;;;;;;;3.42;1.83;;;;;;;20.84;53.24;98026.34;5130936;27;20048;-91
2022/08/22 02:16:34;;;;;;;2.85;1.90;;;;;;;20.75;54.17;98041.47;5129883;28;20036;-90
2022/08/22 02:19:17;;;;;;;3.15;2.13;;;;;;;20.59;58.61;98031.03;5131432;27;20104;-90
2022/08/22 02:21:49;;;;;;;3.95;2.70;;;;;;;20.46;62.62;98050.00;5131500;27;20105;-92
2022/08/22 02:24:28;;;;;;;3.72;2.67;;;;;;;20.17;66.03;98036.13;5130723;27;20039;-90
2022/08/22 02:27:07;;;;;;;3.85;2.50;;;;;;;19.94;66.66;98035.19;5131191;28;20058;-92
2022/08/22 02:29:41;;;;;;;4.47;2.20;;;;;;;19.91;62.32;98048.94;5131036;27;20063;-91
2022/08/22 02:32:16;;;;;;;3.50;2.08;;;;;;;19.80;60.42;98033.56;5130640;28;20040;-92
2022/08/22 02:34:48;;;;;;;2.70;1.90;;;;;;;19.85;57.82;98035.91;5131287;27;20511;-92
2022/08/22 02:37:21;;;;;;;2.10;1.60;;;;;;;20.22;54.10;98028.50;5127507;28;20374;-91
2022/08/22 02:40:01;;;;;;;2.25;1.73;;;;;;;20.35;57.58;98027.56;5117047;28;20088;-92
2022/08/22 02:42:37;;;;;;;4.82;2.10;;;;;;;20.27;56.16;98026.28;5114543;28;20063;-92
2022/08/22 02:45:18;;;;;;;2.58;1.80;;;;;;;20.25;54.84;98022.00;5116800;28;20044;-91
2022/08/22 02:47:55;;;;;;;3.15;2.08;;;;;;;20.15;54.68;98008.38;5113684;28;20513;-91
2022/08/22 02:50:33;;;;;;;2.22;1.75;;;;;;;19.94;59.39;98019.00;5117615;27;20040;-93
2022/08/22 02:53:04;;;;;;;2.78;1.63;;;;;;;19.83;55.74;98019.84;5117179;28;20396;-92
2022/08/22 02:55:46;;;;;;;2.83;2.00;;;;;;;19.86;58.22;98030.41;5117205;28;20071;-92
2022/08/22 02:58:23;;;;;;;3.88;2.00;;;;;;;19.90;59.95;98022.91;5115864;28;20061;-94
2022/08/22 03:00:51;;;;;;;3.80;2.22;;;;;;;19.62;60.33;98010.66;5117225;28;20059;-93
2022/08/22 03:03:23;;;;;;;4.03;1.95;;;;;;;19.79;59.40;98017.50;5116780;28;20503;-93
2022/08/22 03:05:58;;;;;;;2.85;2.03;;;;;;;19.77;58.20;98017.59;5115775;28;20044;-92
2022/08/22 03:08:27;;;;;;;2.35;1.70;;;;;;;19.79;57.07;98015.66;5116987;28;20054;-92
2022/08/22 03:11:08;;;;;;;2.85;1.73;;;;;;;20.02;56.88;98021.13;5114433;28;20400;-94
2022/08/22 03:13:46;;;;;;;2.35;1.77;;;;;;;20.20;53.67;98008.03;5116988;28;20495;-93
2022/08/22 03:16:17;;;;;;;2.25;1.80;;;;;;;20.27;56.55;98018.19;5116973;28;20510;-93
2022/08/22 03:18:55;;;;;;;2.60;1.98;;;;;;;20.05;57.58;97997.44;5116918;28;20074;-92
2022/08/22 03:21:30;;;;;;;2.72;1.70;;;;;;;20.07;56.86;98035.09;5116310;28;20492;-93
2022/08/22 03:24:05;;;;;;;1.92;1.55;;;;;;;19.96;53.97;98011.66;5116212;28;20374;-92
2022/08/22 03:26:42;;;;;;;3.22;1.70;;;;;;;20.21;55.00;98029.50;5114825;28;20104;-93
2022/08/22 03:29:12;;;;;;;3.05;1.80;;;;;;;20.13;53.97;98010.34;5116927;28;20035;-94
2022/08/22 03:32:10;;;;;;;1.80;1.40;;;;;;;20.27;53.66;98014.66;5117281;28;20044;-92
2022/08/22 03:34:37;;;;;;;3.08;1.80;;;;;;;19.82;56.49;98009.16;5110068;28;20557;-92
2022/08/22 03:37:14;;;;;;;4.95;1.73;;;;;;;20.11;53.71;98020.41;5116910;28;20923;-92
2022/08/22 03:39:53;;;;;;;2.08;1.48;;;;;;;20.21;53.68;98013.31;5116299;28;20535;-91
2022/08/22 03:42:45;;;;;;;2.60;1.80;;;;;;;20.08;53.89;98016.09;5114146;28;20031;-94
2022/08/22 03:45:43;;;;;;;3.67;1.70;;;;;;;19.81;57.72;98029.03;5113190;28;20100;-92
2022/08/22 03:48:34;;;;;;;3.38;1.90;;;;;;;19.49;59.04;98011.56;5112675;28;20032;-92
2022/08/22 03:51:21;;;;;;;3.95;1.75;;;;;;;19.46;56.49;98025.28;5115381;28;20051;-93
2022/08/22 03:54:14;;;;;;;3.83;1.60;;;;;;;19.48;56.11;98006.31;5115911;28;20035;-93
2022/08/22 03:57:18;;;;;;;2.42;1.60;;;;;;;19.53;57.96;98014.91;5115979;28;20040;-91
2022/08/22 04:00:02;;;;;;;3.30;1.70;;;;;;;19.61;56.26;98001.69;5115662;28;20457;-93
2022/08/22 04:02:58;;;;;;;3.70;1.90;;;;;;;19.47;58.80;98015.38;5113381;28;20357;-92
2022/08/22 04:06:02;;;;;;;2.38;1.80;;;;;;;19.25;60.36;98018.81;5107400;28;20055;-94
2022/08/22 04:09:03;;;;;;;2.47;1.73;;;;;;;19.19;58.15;98011.19;5061484;28;20131;-93
2022/08/22 04:11:48;;;;;;;4.13;2.00;;;;;;;19.44;56.69;98010.22;5071853;28;20044;-91
2022/08/22 04:14:26;;;;;;;3.15;2.05;;;;;;;19.56;58.10;98009.28;5072925;28;20115;-93
2022/08/22 04:17:31;;;;;;;3.40;1.90;;;;;;;19.61;57.54;98030.53;5073342;28;20097;-92
2022/08/22 04:20:13;;;;;;;2.35;1.70;;;;;;;19.63;57.13;98013.25;5073182;28;20048;-93
2022/08/22 04:23:11;;;;;;;7.80;2.17;;;;;;;19.55;58.57;98012.09;5073097;28;20106;-93
2022/08/22 04:25:41;;;;;;;3.72;1.90;;;;;;;19.45;59.80;98025.41;5061548;28;20060;-93
2022/08/22 04:28:12;;;;;;;2.65;2.00;;;;;;;19.24;61.08;98009.88;5073117;28;20041;-93
2022/08/22 04:30:45;;;;;;;4.40;2.05;;;;;;;19.12;62.71;98018.88;5072911;28;20052;-91
2022/08/22 04:33:18;;;;;;;3.53;2.00;;;;;;;18.97;64.33;98015.47;5070781;28;20049;-92
2022/08/22 04:36:00;;;;;;;4.10;2.50;;;;;;;18.93;67.13;98035.50;5071176;28;20040;-93
2022/08/22 04:38:32;;;;;;;5.40;3.00;;;;;;;18.81;68.85;98045.34;5072890;28;20070;-92
2022/08/22 04:41:06;;;;;;;6.20;3.55;;;;;;;18.74;70.11;98041.38;5073232;28;20123;-92
2022/08/22 04:43:38;;;;;;;5.68;3.38;;;;;;;18.48;71.50;98025.25;5072842;28;20040;-90
2022/08/22 04:46:10;;;;;;;6.53;3.08;;;;;;;18.35;72.67;98019.00;5110649;28;20055;-91
2022/08/22 04:48:40;;;;;;;4.93;2.97;;;;;;;18.55;73.71;98054.41;5115223;28;20039;-93
2022/08/22 04:51:14;;;;;;;7.47;3.40;;;;;;;18.41;73.95;98045.50;5115102;28;20043;-93
2022/08/22 04:54:15;;;;;;;4.63;3.05;;;;;;;18.30;74.67;98056.13;5115246;28;20036;-93
2022/08/22 04:56:54;;;;;;;5.20;3.20;;;;;;;18.15;75.07;98051.81;5115137;28;20365;-91
2022/08/22 04:59:19;;;;;;;6.53;3.13;;;;;;;18.14;75.99;98060.88;5114707;28;20066;-91
2022/08/22 05:01:53;;;;;;;6.38;3.28;;;;;;;18.16;76.43;98064.31;5114580;28;20039;-93
2022/08/22 05:04:23;;;;;;;8.43;3.47;;;;;;;18.07;77.25;98068.50;5114776;28;20050;-93
2022/08/22 05:06:55;;;;;;;4.45;2.92;;;;;;;17.97;77.31;98065.56;5115733;28;20036;-94
2022/08/22 05:09:25;;;;;;;4.60;2.85;;;;;;;17.91;78.00;98066.00;5111978;28;20047;-92
2022/08/22 05:11:56;;;;;;;7.68;3.53;;;;;;;17.76;78.80;98049.06;5115608;28;20406;-93
2022/08/22 05:14:32;;;;;;;4.13;2.85;;;;;;;17.89;78.55;98069.75;5114893;28;20112;-92
2022/08/22 05:17:00;;;;;;;6.05;3.33;;;;;;;17.90;78.66;98068.81;5114416;28;20039;-92
2022/08/22 05:19:33;;;;;;;6.05;3.15;;;;;;;17.71;79.74;98048.50;5114677;28;20047;-92
2022/08/22 05:22:02;;;;;;;5.97;3.40;;;;;;;17.90;79.25;98080.41;5114466;28;20046;-93
2022/08/22 05:24:36;;;;;;;6.68;3.40;;;;;;;17.88;80.00;98085.03;5114370;28;20040;-93
2022/08/22 05:27:10;;;;;;;7.15;3.30;;;;;;;17.88;79.69;98079.66;5113826;28;20500;-93
2022/08/22 05:29:39;;;;;;;4.50;3.00;;;;;;;17.85;79.76;98067.28;5114133;28;20105;-94
2022/08/22 05:32:06;;;;;;;;;;;;;;;18.06;79.64;98082.91;5114561;28;20050;-93
2022/08/22 05:34:37;;;;;;;4.40;2.90;;;;;;;18.05;79.95;98070.44;5102131;28;19916;-93
2022/08/22 05:37:11;;;;;;;6.03;3.10;;;;;;;18.18;79.45;98067.78;5114364;28;20452;-93
2022/08/22 05:39:39;;;;;;;6.57;3.25;;;;;;;18.40;79.11;98077.91;5112966;28;20067;-91
2022/08/22 05:42:12;;;;;;;5.22;3.10;;;;;;;18.63;78.76;98078.97;5114235;28;20054;-93
2022/08/22 05:44:38;;;;;;;5.13;3.03;;;;;;;18.81;76.62;98087.59;5113251;28;20051;-94
2022/08/22 05:47:18;;;;;;;6.78;3.28;;;;;;;19.05;74.80;98074.19;5114344;28;20042;-94
2022/08/22 05:49:52;;;;;;;6.57;3.15;;;;;;;19.22;72.79;98065.72;5113902;28;20124;-92
2022/08/22 05:52:35;;;;;;;4.30;2.75;;;;;;;19.53;72.30;98084.16;5113913;28;20035;-92
2022/08/22 05:55:07;;;;;;;6.03;2.78;;;;;;;19.56;71.83;98052.44;5112859;28;20044;-94
2022/08/22 05:57:37;;;;;;;8.65;3.00;;;;;;;19.76;71.86;98064.44;5115170;28;20553;-92
2022/08/22 06:00:08;;;;;;;6.88;2.88;;;;;;;19.99;71.78;98081.56;5114399;28;20059;-93
2022/08/22 06:02:49;;;;;;;5.50;3.00;;;;;;;19.99;70.63;98059.97;5110298;28;20135;-94
2022/08/22 06:05:22;;;;;;;7.30;3.22;;;;;;;20.24;69.13;98080.53;5114399;28;20039;-93
2022/08/22 06:07:53;;;;;;;7.47;3.05;;;;;;;20.35;67.59;98078.84;5114104;28;20152;-93
2022/08/22 06:10:24;;;;;;;8.80;2.95;;;;;;;20.38;68.42;98082.16;5112553;28;20042;-92
2022/08/22 06:12:57;;;;;;;9.70;3.78;;;;;;;20.55;67.25;98080.84;5114140;28;20043;-93
2022/08/22 06:15:29;;;;;;;6.03;3.55;;;;;;;20.81;67.41;98092.31;5117788;28;20040;-94
2022/08/22 06:17:59;;;;;;;5.50;3.50;;;;;;;20.91;66.29;98076.22;5117630;28;20043;-94
2022/08/22 06:20:32;;;;;;;9.10;3.53;;;;;;;21.03;65.93;98064.41;5117630;28;20036;-93
2022/08/22 06:23:02;;;;;;;8.18;3.38;;;;;;;21.24;65.38;98066.38;5118071;28;20027;-93
2022/08/22 06:25:31;;;;;;;9.40;3.35;;;;;;;21.45;63.93;98078.16;5116269;28;20043;-93
2022/08/22 06:28:01;;;;;;;8.07;3.30;;;;;;;21.59;63.98;98078.84;5117960;28;20082;-93
2022/08/22 06:30:28;;;;;;;7.60;3.60;;;;;;;21.77;63.00;98088.13;5117254;28;20035;-93
2022/08/22 06:33:00;;;;;;;5.72;2.90;;;;;;;21.76;61.63;98058.50;5117417;28;20044;-92
2022/08/22 06:35:28;;;;;;;4.50;2.80;;;;;;;22.16;61.17;98091.16;5117336;28;20459;-94
2022/08/22 06:37:58;;;;;;;5.83;2.93;;;;;;;22.23;60.50;98068.00;5116163;28;20080;-94
2022/08/22 06:40:28;;;;;;;5.20;2.83;;;;;;;22.46;59.53;98070.56;5114292;28;20047;-94
2022/08/22 06:42:56;;;;;;;4.35;2.50;;;;;;;22.68;58.83;98094.78;5117212;28;20053;-93
2022/08/22 06:45:28;;;;;;;4.32;2.63;;;;;;;22.70;58.56;98073.84;5117323;28;20036;-94
2022/08/22 06:47:59;;;;;;;4.82;2.50;;;;;;;23.01;57.96;98092.88;5117302;28;20135;-95
2022/08/22 06:50:30;;;;;;;4.78;2.42;;;;;;;23.16;56.85;98094.19;5117303;28;20447;-93
2022/08/22 06:53:04;;;;;;;5.57;2.80;;;;;;;23.09;57.06;98065.91;5117413;28;20035;-91
2022/08/22 06:55:34;;;;;;;4.35;2.58;;;;;;;23.32;55.31;98081.97;5118590;28;20063;-91
2022/08/22 06:58:03;;;;;;;5.30;2.72;;;;;;;23.43;56.12;98087.28;5116365;28;20039;-94
2022/08/22 07:00:32;;;;;;;6.88;2.70;;;;;;;23.50;55.79;98072.13;5116137;28;20093;-91
2022/08/22 07:03:06;;;;;;;4.13;2.67;;;;;;;23.69;55.20;98082.19;5115739;27;20035;-94
2022/08/22 07:05:36;;;;;;;3.22;2.30;;;;;;;23.95;54.51;98087.94;5114748;28;20043;-92
2022/08/22 07:08:06;;;;;;;5.05;2.55;;;;;;;24.07;52.96;98079.63;5114085;28;20096;-90
2022/08/22 07:10:34;;;;;;;5.55;2.83;;;;;;;24.18;52.16;98069.50;5113282;28;20048;-92
2022/08/22 07:13:00;;;;;;;3.73;2.40;;;;;;;24.37;47.33;98079.47;5115600;28;20549;-92
2022/08/22 07:15:33;;;;;;;3.15;2.17;;;;;;;24.59;48.77;98072.00;5116016;28;20051;-93
2022/08/22 07:18:03;;;;;;;4.03;2.10;;;;;;;24.73;44.25;98065.25;5116409;28;20035;-94
2022/08/22 07:20:30;;;;;;;3.83;2.20;;;;;;;24.84;45.42;98070.50;5116383;28;20050;-92
2022/08/22 07:22:59;;;;;;;2.45;2.00;;;;;;;24.90;44.82;98082.66;5115768;28;20096;-92
2022/08/22 07:25:25;;;;;;;;;;;;;;;24.70;43.87;98084.56;5115895;28;20039;-93
2022/08/22 07:28:12;;;;;;;2.55;1.92;;;;;;;24.91;45.69;98068.03;5115511;28;19924;-92
2022/08/22 07:30:47;;;;;;;3.08;2.10;;;;;;;24.77;45.21;98078.41;5114037;28;20067;-93
2022/08/22 07:33:28;;;;;;;2.63;2.00;;;;;;;25.02;44.86;98076.88;5113696;28;20086;-93
2022/08/22 07:35:59;;;;;;;4.35;2.33;;;;;;;24.99;44.39;98062.72;5114785;28;20045;-95
2022/08/22 07:38:41;;;;;;;5.50;2.40;;;;;;;24.97;42.46;98059.28;5114586;28;20034;-94
2022/08/22 07:41:13;;;;;;;4.63;2.20;;;;;;;25.39;44.10;98073.31;5115223;28;20047;-93
2022/08/22 07:43:46;;;;;;;3.65;2.10;;;;;;;25.60;42.31;98072.16;5115514;28;20089;-94
2022/08/22 07:46:26;;;;;;;3.97;2.05;;;;;;;25.86;43.28;98064.06;5114276;28;20036;-94
2022/08/22 07:48:56;;;;;;;3.17;2.20;;;;;;;25.99;40.46;98059.13;5113950;28;20051;-92
2022/08/22 07:51:29;;;;;;;2.90;2.00;;;;;;;26.17;40.01;98070.00;5113016;28;20841;-95
2022/08/22 07:53:58;;;;;;;3.15;2.03;;;;;;;26.28;40.23;98059.88;5113739;28;20035;-92
2022/08/22 07:56:28;;;;;;;2.65;1.90;;;;;;;26.43;39.29;98066.44;5114640;28;20153;-92
2022/08/22 07:58:59;;;;;;;3.78;2.10;;;;;;;25.81;38.89;98067.28;5110621;28;20051;-94
2022/08/22 08:01:28;;;;;;;3.60;2.33;;;;;;;25.86;40.33;98060.50;5111791;28;20156;-91
2022/08/22 08:03:58;;;;;;;4.60;2.13;;;;;;;26.08;40.76;98059.19;5112597;28;20050;-93
2022/08/22 08:06:26;;;;;;;3.13;2.10;;;;;;;25.77;41.29;98051.41;5115296;28;20051;-93
2022/08/22 08:08:54;;;;;;;2.80;1.98;;;;;;;26.13;41.91;98056.84;5114820;28;20538;-93
2022/08/22 08:11:21;;;;;;;5.13;2.25;;;;;;;26.39;39.05;98045.97;5114041;28;20060;-92
2022/08/22 08:13:53;;;;;;;3.60;2.40;;;;;;;26.51;37.22;98054.75;5112440;28;20039;-92
2022/08/22 08:16:24;;;;;;;3.05;2.10;;;;;;;26.76;37.75;98056.66;5112268;28;20365;-93
2022/08/22 08:18:55;;;;;;;4.10;2.30;;;;;;;26.99;38.13;98048.75;5112468;28;20036;-93
2022/08/22 08:21:27;;;;;;;4.10;2.50;;;;;;;26.81;38.39;98039.81;5115627;28;20119;-91
2022/08/22 08:23:53;;;;;;;3.50;2.40;;;;;;;27.02;36.61;98037.53;5114433;28;20036;-92
2022/08/22 08:26:23;;;;;;;2.85;2.00;;;;;;;27.34;36.72;98055.06;5113906;28;20126;-93
2022/08/22 08:28:53;;;;;;;3.15;2.22;;;;;;;27.42;35.96;98041.44;5112457;28;20043;-92
2022/08/22 08:31:24;;;;;;;3.20;2.17;;;;;;;27.40;35.05;98051.69;5114000;28;20031;-94
2022/08/22 08:33:57;;;;;;;3.45;2.40;;;;;;;27.22;35.50;98037.31;5115141;28;20062;-93
2022/08/22 08:36:33;;;;;;;4.63;2.50;;;;;;;27.10;35.95;98033.97;5113232;28;20085;-92
2022/08/22 08:39:11;;;;;;;4.32;2.30;;;;;;;27.29;35.94;98023.84;5114859;28;20396;-93
2022/08/22 08:42:09;;;;;;;3.80;2.10;;;;;;;27.69;36.45;98050.38;5114503;28;20043;-91
2022/08/22 08:45:07;;;;;;;4.00;2.53;;;;;;;27.57;35.39;98051.75;5112587;28;20134;-94
2022/08/22 08:47:47;;;;;;;4.30;2.60;;;;;;;27.66;35.42;98042.53;5110482;28;20028;-94
2022/08/22 08:50:31;;;;;;;5.40;2.50;;;;;;;27.42;35.60;98043.34;5113312;28;20130;-93
2022/08/22 08:53:26;;;;;;;3.00;2.10;;;;;;;27.65;35.79;98038.06;5114114;28;20035;-93
2022/08/22 08:55:57;;;;;;;3.90;2.55;;;;;;;27.98;35.02;98040.91;5101668;28;20040;-94
2022/08/22 08:58:40;;;;;;;3.28;2.40;;;;;;;28.15;34.36;98039.88;5107281;28;20042;-92
2022/08/22 09:01:28;;;;;;;3.25;2.25;;;;;;;28.30;33.55;98040.06;5115245;28;20118;-93
2022/08/22 09:04:14;;;;;;;;;;;;;;;28.59;34.67;98044.16;5113169;28;20458;-93
2022/08/22 09:07:12;;;;;;;3.33;2.35;;;;;;;28.71;32.80;98023.56;5111376;28;19973;-94
2022/08/22 09:09:54;;;;;;;3.33;2.13;;;;;;;28.92;33.41;98027.63;5116064;28;20395;-93
2022/08/22 09:12:36;;;;;;;3.53;2.35;;;;;;;28.91;33.65;98023.19;5115703;28;20039;-95
2022/08/22 09:15:27;;;;;;;4.93;2.55;;;;;;;29.01;33.31;98032.88;5113385;28;20489;-93
2022/08/22 09:18:37;;;;;;;4.03;2.22;;;;;;;29.03;32.80;98025.34;5113837;28;20366;-93
2022/08/22 09:21:19;;;;;;;3.35;2.40;;;;;;;29.00;32.55;98022.97;5114065;28;20051;-93
2022/08/22 09:24:11;;;;;;;3.35;2.20;;;;;;;28.84;31.42;98014.81;5113680;28;20035;-92
2022/08/22 09:26:47;;;;;;;4.00;2.40;;;;;;;29.02;31.97;98017.34;5111097;28;20067;-94
2022/08/22 09:29:34;;;;;;;3.95;2.40;;;;;;;28.93;32.43;98021.13;5103086;28;20485;-94
2022/08/22 09:32:09;;;;;;;4.70;2.65;;;;;;;29.02;32.04;98006.41;5114141;28;20079;-95
2022/08/22 09:34:40;;;;;;;4.18;2.58;;;;;;;28.70;32.39;98001.88;5114213;28;20096;-93
2022/08/22 09:37:18;;;;;;;3.47;2.38;;;;;;;29.08;34.08;98002.91;5114603;28;20047;-94
2022/08/22 09:39:56;;;;;;;3.58;2.35;;;;;;;29.31;32.96;98010.38;5114354;28;20047;-94
2022/08/22 09:42:33;;;;;;;3.25;2.35;;;;;;;29.41;31.00;98000.06;5111931;28;20058;-94
2022/08/22 09:45:34;;;;;;;3.67;2.35;;;;;;;29.00;32.45;98025.72;5114976;28;20089;-94
2022/08/22 09:48:08;;;;;;;3.75;2.30;;;;;;;29.09;33.84;97999.19;5118460;28;20085;-91
2022/08/22 09:50:46;;;;;;;4.78;2.40;;;;;;;29.25;31.67;98009.22;5116735;28;20040;-92
2022/08/22 09:53:23;;;;;;;3.80;2.47;;;;;;;29.25;31.25;97995.50;5120109;28;20039;-93
2022/08/22 09:56:00;;;;;;;4.20;2.42;;;;;;;29.39;31.83;98004.88;5118914;28;20051;-93
2022/08/22 09:58:36;;;;;;;6.75;2.40;;;;;;;29.29;31.85;98005.09;5119011;28;20042;-93
2022/08/22 10:01:10;;;;;;;3.53;2.42;;;;;;;29.39;30.89;97991.19;5120544;28;20051;-94
2022/08/22 10:04:18;;;;;;;3.20;2.10;;;;;;;29.48;30.25;98006.53;5120519;28;20511;-93
2022/08/22 10:06:48;;;;;;;;;;;;;;;29.58;30.28;98004.41;5058271;28;20417;-93
2022/08/22 10:09:20;;;;;;;4.28;2.60;;;;;;;29.58;31.24;98001.66;5055969;28;19921;-95
2022/08/22 10:11:57;;;;;;;3.30;2.15;;;;;;;29.67;30.60;97991.50;5055369;28;20053;-94
2022/08/22 10:14:27;;;;;;;3.67;2.22;;;;;;;29.35;31.86;97990.69;5055413;28;20037;-93
2022/08/22 10:17:02;;;;;;;3.80;2.30;;;;;;;29.56;31.87;97998.25;5056268;28;20045;-94
2022/08/22 10:19:34;;;;;;;4.20;2.40;;;;;;;29.39;31.04;97993.91;5054936;28;20033;-91
2022/08/22 10:22:17;;;;;;;3.75;2.22;;;;;;;29.48;31.93;97981.88;5056766;28;20091;-92
2022/08/22 10:24:47;;;;;;;3.22;2.15;;;;;;;29.54;31.50;97992.09;5055398;28;20045;-93
2022/08/22 10:27:18;;;;;;;3.58;2.30;;;;;;;29.64;30.66;97979.00;5055273;28;20083;-93
2022/08/22 10:30:01;;;;;;;3.50;2.17;;;;;;;29.85;30.52;97966.56;5054987;28;20049;-93
2022/08/22 10:32:35;;;;;;;4.15;2.50;;;;;;;30.06;30.34;97985.06;5047530;28;20040;-93
2022/08/22 10:35:14;;;;;;;5.35;2.47;;;;;;;30.05;29.91;97972.38;5054615;28;20095;-92
2022/08/22 10:37:48;;;;;;;3.50;2.30;;;;;;;29.87;30.83;97959.84;5055522;28;20037;-92
2022/08/22 10:40:22;;;;;;;4.30;2.10;;;;;;;30.22;30.35;97970.34;5055431;28;20060;-93
2022/08/22 10:42:52;;;;;;;3.03;2.20;;;;;;;30.34;31.30;97971.63;5097595;28;20500;-94
2022/08/22 10:45:26;;;;;;;3.45;2.40;;;;;;;30.43;29.89;97953.19;5118919;28;20069;-93
2022/08/22 10:48:20;;;;;;;4.38;2.60;;;;;;;30.45;29.29;97962.94;5118101;28;20035;-94
2022/08/22 10:50:49;;;;;;;3.42;2.30;;;;;;;30.59;29.27;97949.41;5116015;28;20130;-92
2022/08/22 10:56:25;;;;;;;4.10;2.20;;;;;;;30.50;29.47;97959.63;5094601;27;20375;-93
2022/08/22 10:58:59;;;;;;;3.58;2.20;;;;;;;30.62;28.03;97955.38;5092467;28;20040;-91
2022/08/22 11:01:31;;;;;;;3.70;2.50;;;;;;;30.55;28.80;97956.31;5092026;28;20489;-93
2022/08/22 11:04:08;;;;;;;3.30;2.30;;;;;;;30.79;28.03;97958.75;5087074;28;20098;-92
2022/08/22 11:06:44;;;;;;;3.28;2.28;;;;;;;30.80;28.36;97959.63;5091986;28;20160;-93
2022/08/22 11:09:21;;;;;;;4.25;2.40;;;;;;;30.85;27.89;97952.50;5092584;28;20630;-94
2022/08/22 11:11:59;;;;;;;3.08;2.10;;;;;;;30.72;28.73;97952.34;5093645;28;20036;-94
2022/08/22 11:14:58;;;;;;;3.78;2.45;;;;;;;30.27;28.73;97945.94;5093137;28;20032;-93
2022/08/22 11:17:47;;;;;;;3.70;2.53;;;;;;;30.07;29.43;97954.69;5090881;28;20051;-94
2022/08/22 11:20:19;;;;;;;3.00;2.10;;;;;;;29.72;29.95;97963.59;5079970;28;20048;-94
2022/08/22 11:23:00;;;;;;;3.42;2.28;;;;;;;29.55;30.99;97943.63;5090182;28;20098;-94
2022/08/22 11:25:42;;;;;;;3.50;2.45;;;;;;;29.81;29.31;97937.81;5088711;28;20032;-92
2022/08/22 11:28:27;;;;;;;3.53;2.30;;;;;;;30.11;30.38;97938.75;5090871;28;20135;-93
2022/08/22 11:31:04;;;;;;;4.80;2.55;;;;;;;30.37;29.85;97941.06;5086655;28;20056;-93
2022/08/22 11:33:37;;;;;;;3.47;2.28;;;;;;;30.38;29.67;97933.69;5092054;28;20043;-93
2022/08/22 11:36:23;;;;;;;3.58;2.38;;;;;;;30.14;30.18;97921.06;5091325;28;20135;-94
2022/08/22 11:39:02;;;;;;;3.42;2.30;;;;;;;29.84;29.60;97921.88;5092643;28;20036;-91
2022/08/22 11:41:32;;;;;;;3.33;2.30;;;;;;;29.72;29.37;97925.22;5089955;28;20436;-94
2022/08/22 11:44:05;;;;;;;4.55;2.30;;;;;;;29.53;30.21;97921.06;5090852;28;20044;-94
2022/08/22 11:46:34;;;;;;;3.35;2.40;;;;;;;29.64;29.11;97937.06;5089925;28;20110;-93
2022/08/22 11:49:24;;;;;;;3.83;2.30;;;;;;;29.73;29.63;97946.09;5091342;28;20048;-92
2022/08/22 11:52:19;;;;;;;3.78;2.42;;;;;;;29.83;28.83;97933.00;5091364;28;20520;-94
2022/08/22 11:55:01;;;;;;;4.25;2.35;;;;;;;29.73;29.75;97916.78;5087466;28;20112;-94
2022/08/22 11:57:34;;;;;;;4.15;2.20;;;;;;;29.94;30.03;97905.16;5090797;28;20044;-94
2022/08/22 12:00:31;;;;;;;3.65;2.30;;;;;;;30.07;30.27;97907.25;5092220;28;20048;-94
2022/08/22 12:03:15;;;;;;;4.25;2.22;;;;;;;29.85;29.11;97906.25;5085253;28;20049;-93
2022/08/22 12:05:45;;;;;;;3.47;2.20;;;;;;;29.96;30.34;97907.72;5090413;28;20397;-92
2022/08/22 12:08:20;;;;;;;3.53;2.28;;;;;;;30.28;30.77;97906.56;5061422;28;20127;-93
2022/08/22 12:10:53;;;;;;;3.13;2.38;;;;;;;30.30;27.93;97883.38;5077196;28;20037;-94
2022/08/22 12:13:39;;;;;;;4.28;2.40;;;;;;;30.11;29.68;97883.91;5078804;28;20119;-94
2022/08/22 12:16:14;;;;;;;3.90;2.20;;;;;;;30.07;28.34;97899.88;5078650;28;20044;-95
2022/08/22 12:18:50;;;;;;;4.55;2.20;;;;;;;30.14;28.41;97899.97;5079213;28;20045;-94
2022/08/22 12:21:46;;;;;;;4.25;2.40;;;;;;;30.13;27.81;97875.50;5078895;28;20029;-94
2022/08/22 12:24:31;;;;;;;2.35;1.90;;;;;;;30.54;28.27;97899.75;5078763;28;20043;-93
2022/08/22 12:27:20;;;;;;;4.03;2.20;;;;;;;30.93;27.77;97895.84;5073697;28;20040;-93
2022/08/22 12:30:02;;;;;;;4.88;2.42;;;;;;;30.75;27.80;97877.00;5078496;28;20044;-94